KGAO

South Lafourche Leonard Miller Jr Airport

Galliano, Louisiana, USA
METAR KGAO 220955Z AUTO 00000KT 7SM CLR 21/19 A2997 RMK AO2 T02070191
Observed Flight Rules
May-22 @ 09:55 UTC (21 minutes ago) Visual Flight Rules
Visibility Clouds
7 miles
  • Clear skies
Temperatures Readings
Current 21°C / 70°F
Dewpoint 19°C / 66°F
Humidity 88%
Altimeter 29.97" Hg
Pressure 1015 hPa
Elevation 1
METAR KGAO 220955Z AUTO 00000KT 7SM CLR 21/19 A2997 RMK AO2 T02070191
Observed Flight Rules
May-22 @ 09:55 UTC
(21 minutes ago)
VFR
Clouds
  • Clear skies
Temperature Dewpoint
21°C / 70°F 19°C / 66°F
Humidity Altimeter Pressure
88% 29.97" Hg 1015 hPa